createdAt,value
2018-01-22T00:01:48.925Z,98.43
2018-01-22T00:04:19.764Z,98.29
2018-01-22T00:06:50.589Z,98.35
2018-01-22T00:09:21.332Z,98.40
2018-01-22T00:11:52.058Z,98.47
2018-01-22T00:14:22.813Z,98.59
2018-01-22T00:16:53.560Z,98.64
2018-01-22T00:19:24.323Z,98.95
2018-01-22T00:21:55.287Z,98.94
2018-01-22T00:24:26.109Z,99.02
2018-01-22T00:27:08.983Z,99.03
2018-01-22T00:29:39.761Z,99.16
2018-01-22T00:32:10.557Z,99.21
2018-01-22T00:34:41.392Z,99.17
2018-01-22T00:37:12.148Z,99.13
2018-01-22T00:39:42.918Z,98.97
2018-01-22T00:42:13.652Z,99.11
2018-01-22T00:44:44.395Z,99.04
2018-01-22T00:47:15.123Z,99.07
2018-01-22T00:49:45.868Z,99.06
2018-01-22T00:52:16.601Z,98.95
2018-01-22T00:54:47.353Z,98.90
2018-01-22T00:57:18.083Z,98.81
2018-01-22T00:59:48.854Z,98.97
2018-01-22T01:02:20.588Z,98.85
2018-01-22T01:04:51.373Z,98.91
2018-01-22T01:07:22.108Z,98.92
2018-01-22T01:09:52.860Z,98.89
2018-01-22T01:12:23.586Z,98.78
2018-01-22T01:14:54.355Z,98.76
2018-01-22T01:17:25.098Z,98.61
2018-01-22T01:19:55.844Z,98.54
2018-01-22T01:22:26.586Z,98.57
2018-01-22T01:24:57.349Z,98.50
2018-01-22T01:27:28.089Z,98.51
2018-01-22T01:29:58.856Z,98.52
2018-01-22T01:32:29.584Z,98.39
2018-01-22T01:35:00.344Z,98.27
2018-01-22T01:37:31.095Z,98.24
2018-01-22T01:40:01.876Z,98.32
2018-01-22T01:42:32.609Z,98.37
2018-01-22T01:45:03.370Z,98.30
2018-01-22T01:47:34.110Z,98.38
2018-01-22T01:50:04.885Z,98.15
2018-01-22T01:52:35.638Z,98.15
2018-01-22T01:55:06.408Z,97.98
2018-01-22T01:57:37.135Z,97.92
2018-01-22T02:00:07.936Z,97.86
2018-01-22T02:02:38.704Z,97.82
2018-01-22T02:05:09.460Z,97.66
2018-01-22T02:07:40.223Z,97.70
2018-01-22T02:10:11.021Z,97.66
2018-01-22T02:12:41.771Z,97.70
2018-01-22T02:15:12.529Z,97.61
2018-01-22T02:17:43.285Z,97.61
2018-01-22T02:20:20.988Z,97.50
2018-01-22T02:22:51.733Z,97.62
2018-01-22T02:25:22.493Z,97.64
2018-01-22T02:27:53.234Z,97.77
2018-01-22T02:30:24.007Z,97.71
2018-01-22T02:32:54.753Z,97.85
2018-01-22T02:35:25.532Z,97.92
2018-01-22T02:37:56.288Z,97.99
2018-01-22T02:40:27.047Z,97.91
2018-01-22T02:42:57.798Z,97.92
2018-01-22T02:45:28.585Z,97.89
2018-01-22T02:47:59.323Z,98.01
2018-01-22T02:50:30.075Z,97.84
2018-01-22T02:53:00.820Z,97.76
2018-01-22T02:55:31.569Z,97.63
2018-01-22T02:58:06.645Z,97.67
2018-01-22T03:00:37.405Z,97.58
2018-01-22T03:03:08.155Z,97.40
2018-01-22T03:05:38.898Z,97.36
2018-01-22T03:08:09.644Z,97.33
2018-01-22T03:10:40.409Z,97.25
2018-01-22T03:13:11.147Z,97.29
2018-01-22T03:15:41.928Z,97.18
2018-01-22T03:18:12.684Z,97.30
2018-01-22T03:20:43.452Z,97.22
2018-01-22T03:23:14.238Z,97.36
2018-01-22T03:25:45.009Z,97.21
2018-01-22T03:28:15.746Z,97.33
2018-01-22T03:30:46.521Z,97.24
2018-01-22T03:33:17.281Z,97.24
2018-01-22T03:35:48.053Z,97.22
2018-01-22T03:38:18.788Z,97.17
2018-01-22T03:40:49.527Z,97.21
2018-01-22T03:43:20.284Z,97.34
2018-01-22T03:45:51.049Z,97.36
2018-01-22T03:48:21.815Z,97.33
2018-01-22T03:50:52.590Z,97.02
2018-01-22T03:53:23.360Z,96.95
2018-01-22T03:55:54.100Z,97.21
2018-01-22T03:58:24.845Z,97.25
2018-01-22T04:00:55.601Z,97.09
2018-01-22T04:03:26.331Z,97.17
2018-01-22T04:05:57.091Z,97.29
2018-01-22T04:08:27.844Z,97.24
2018-01-22T04:10:58.615Z,97.41
2018-01-22T04:13:29.357Z,97.54
2018-01-22T04:16:00.225Z,97.58
2018-01-22T04:18:31.021Z,97.46
2018-01-22T04:21:01.787Z,97.36
2018-01-22T04:23:32.553Z,97.30
2018-01-22T04:26:03.313Z,97.42
2018-01-22T04:28:34.100Z,97.20
2018-01-22T04:31:04.872Z,97.16
2018-01-22T04:33:35.611Z,97.00
2018-01-22T04:36:06.416Z,96.89
2018-01-22T04:38:37.161Z,96.95
2018-01-22T04:41:07.916Z,96.75
2018-01-22T04:43:38.672Z,96.74
2018-01-22T04:46:09.447Z,96.60
2018-01-22T04:48:40.208Z,96.93
2018-01-22T04:51:10.983Z,96.72
2018-01-22T04:53:41.729Z,96.77
2018-01-22T04:56:12.524Z,96.73
2018-01-22T04:58:43.278Z,96.75
2018-01-22T05:01:14.065Z,96.72
2018-01-22T05:03:44.856Z,96.67
2018-01-22T05:06:15.602Z,96.54
2018-01-22T05:08:46.355Z,96.66
2018-01-22T05:11:17.119Z,96.56
2018-01-22T05:13:47.880Z,96.64
2018-01-22T05:16:18.656Z,96.68
2018-01-22T05:18:49.414Z,96.67
2018-01-22T05:21:20.173Z,96.50
2018-01-22T05:23:50.920Z,96.38
2018-01-22T05:26:21.686Z,96.34
2018-01-22T05:28:52.444Z,96.49
2018-01-22T05:31:23.220Z,96.56
2018-01-22T05:33:53.998Z,96.65
2018-01-22T05:36:24.790Z,96.60
2018-01-22T05:38:55.540Z,96.55
2018-01-22T05:41:26.328Z,96.65
2018-01-22T05:43:57.077Z,96.63
2018-01-22T05:46:27.840Z,96.54
2018-01-22T05:48:58.579Z,96.61
2018-01-22T05:51:29.359Z,96.77
2018-01-22T05:54:00.102Z,96.89
2018-01-22T05:56:30.913Z,97.14
2018-01-22T05:59:01.692Z,97.20
2018-01-22T06:01:32.467Z,97.08
2018-01-22T06:04:03.369Z,96.79
2018-01-22T06:06:34.137Z,97.11
2018-01-22T06:09:04.884Z,97.11
2018-01-22T06:11:35.632Z,97.03
2018-01-22T06:14:06.384Z,97.00
2018-01-22T06:16:37.137Z,97.01
2018-01-22T06:19:07.879Z,97.06
2018-01-22T06:21:38.672Z,96.95
2018-01-22T06:24:09.403Z,97.18
2018-01-22T06:26:40.168Z,97.06
2018-01-22T06:29:10.904Z,97.22
2018-01-22T06:31:41.665Z,97.23
2018-01-22T06:34:12.411Z,97.09
2018-01-22T06:36:43.156Z,97.10
2018-01-22T06:39:13.894Z,96.94
2018-01-22T06:41:44.647Z,96.78
2018-01-22T06:44:15.380Z,96.95
2018-01-22T06:46:46.135Z,97.01
2018-01-22T06:49:16.927Z,96.99
2018-01-22T06:51:47.727Z,96.62
2018-01-22T06:54:18.475Z,96.60
2018-01-22T06:56:49.235Z,96.88
2018-01-22T06:59:19.998Z,96.78
2018-01-22T07:01:50.759Z,96.80
2018-01-22T07:04:21.541Z,96.97
2018-01-22T07:06:52.305Z,97.03
2018-01-22T07:09:23.073Z,96.78
2018-01-22T07:12:00.716Z,96.37
2018-01-22T07:14:31.464Z,96.50
2018-01-22T07:17:02.212Z,96.45
2018-01-22T07:19:32.936Z,96.23
2018-01-22T07:22:03.697Z,96.26
2018-01-22T07:24:34.462Z,96.27
2018-01-22T07:27:05.226Z,96.22
2018-01-22T07:29:35.952Z,96.27
2018-01-22T07:32:06.712Z,96.01
2018-01-22T07:34:37.453Z,95.82
2018-01-22T07:37:08.242Z,95.72
2018-01-22T07:39:39.072Z,95.70
2018-01-22T07:42:09.836Z,96.08
2018-01-22T07:44:40.601Z,95.71
2018-01-22T07:47:11.361Z,95.81
2018-01-22T07:49:42.099Z,95.52
2018-01-22T07:52:12.882Z,95.52
2018-01-22T07:54:43.617Z,95.31
2018-01-22T07:57:14.379Z,94.99
2018-01-22T07:59:45.135Z,95.17
2018-01-22T08:02:15.917Z,94.72
2018-01-22T08:04:46.697Z,94.78
2018-01-22T08:07:17.496Z,94.81
2018-01-22T08:09:48.240Z,94.46
2018-01-22T08:12:19.018Z,94.32
2018-01-22T08:14:49.776Z,94.54
2018-01-22T08:17:20.552Z,93.82
2018-01-22T08:19:58.253Z,94.16
2018-01-22T08:22:29.024Z,93.30
2018-01-22T08:24:59.845Z,92.70
2018-01-22T08:27:30.612Z,92.86
2018-01-22T08:30:01.375Z,93.42
2018-01-22T08:32:32.139Z,93.67
2018-01-22T08:35:02.920Z,94.27
2018-01-22T08:37:33.756Z,93.93
2018-01-22T08:40:04.508Z,93.66
2018-01-22T08:42:35.283Z,93.00
2018-01-22T08:45:06.020Z,93.20
2018-01-22T08:47:36.885Z,92.50
2018-01-22T08:50:07.653Z,92.28
2018-01-22T08:52:38.455Z,93.31
2018-01-22T08:55:09.195Z,93.63
2018-01-22T08:57:39.951Z,93.06
2018-01-22T09:00:10.713Z,93.55
2018-01-22T09:02:41.500Z,93.45
2018-01-22T09:05:12.256Z,93.15
2018-01-22T09:07:43.172Z,93.20
2018-01-22T09:10:14.055Z,93.04
2018-01-22T09:12:44.814Z,92.86
2018-01-22T09:15:15.574Z,93.27
2018-01-22T09:17:46.316Z,92.69
2018-01-22T09:20:17.050Z,92.61
2018-01-22T09:22:47.864Z,92.92
2018-01-22T09:25:18.620Z,92.48
2018-01-22T09:27:49.403Z,92.94
2018-01-22T09:30:20.164Z,92.07
2018-01-22T09:33:05.960Z,92.64
2018-01-22T09:35:36.692Z,92.34
2018-01-22T09:38:07.524Z,91.90
2018-01-22T09:40:38.279Z,91.44
2018-01-22T09:43:09.037Z,92.89
2018-01-22T09:45:39.817Z,92.19
2018-01-22T09:48:10.588Z,92.12
2018-01-22T09:50:41.465Z,92.29
2018-01-22T09:53:12.233Z,92.63
2018-01-22T09:55:43.052Z,91.71
2018-01-22T09:58:13.814Z,91.84
2018-01-22T10:00:44.569Z,91.79
2018-01-22T10:03:15.308Z,91.72
2018-01-22T10:05:46.048Z,91.94
2018-01-22T10:08:16.824Z,91.93
2018-01-22T10:10:47.577Z,91.62
2018-01-22T10:13:18.330Z,91.94
2018-01-22T10:15:49.092Z,91.69
2018-01-22T10:18:19.865Z,92.38
2018-01-22T10:20:50.613Z,92.33
2018-01-22T10:23:21.380Z,92.42
2018-01-22T10:25:52.154Z,92.23
2018-01-22T10:28:22.935Z,92.04
2018-01-22T10:30:53.673Z,92.34
2018-01-22T10:33:24.423Z,92.29
2018-01-22T10:35:55.172Z,92.39
2018-01-22T10:38:25.929Z,92.13
2018-01-22T10:40:56.669Z,92.44
2018-01-22T10:43:27.484Z,92.07
2018-01-22T10:45:58.332Z,90.97
2018-01-22T10:48:29.155Z,89.97
2018-01-22T10:50:59.957Z,89.93
2018-01-22T10:53:30.800Z,90.23
2018-01-22T10:56:01.633Z,90.87
2018-01-22T10:58:32.452Z,91.04
2018-01-22T11:01:03.305Z,91.04
2018-01-22T11:03:34.088Z,91.03
2018-01-22T11:06:04.849Z,91.22
2018-01-22T11:08:35.620Z,91.63
2018-01-22T11:11:06.368Z,91.41
2018-01-22T11:13:37.159Z,91.31
2018-01-22T11:16:09.928Z,91.71
2018-01-22T11:18:40.694Z,92.14
2018-01-22T11:21:11.513Z,91.73
2018-01-22T11:23:42.352Z,91.95
2018-01-22T11:26:13.110Z,92.47
2018-01-22T11:28:43.868Z,92.40
2018-01-22T11:31:14.611Z,92.62
2018-01-22T11:33:45.390Z,93.63
2018-01-22T11:36:16.141Z,93.88
2018-01-22T11:38:46.959Z,93.62
2018-01-22T11:41:17.703Z,94.14
2018-01-22T11:43:48.504Z,93.74
2018-01-22T11:46:19.257Z,93.39
2018-01-22T11:48:50.140Z,93.59
2018-01-22T11:51:20.920Z,94.40
2018-01-22T11:53:51.712Z,94.61
2018-01-22T11:56:22.492Z,93.95
2018-01-22T11:58:53.258Z,93.94
2018-01-22T12:01:24.000Z,93.92
2018-01-22T12:03:54.774Z,94.56
2018-01-22T12:06:25.633Z,94.02
2018-01-22T12:08:56.371Z,93.97
2018-01-22T12:11:27.129Z,94.42
2018-01-22T12:13:57.943Z,94.29
2018-01-22T12:16:28.692Z,93.93
2018-01-22T12:18:59.537Z,93.38
2018-01-22T12:21:30.345Z,93.79
2018-01-22T12:24:01.202Z,93.94
2018-01-22T12:26:32.037Z,93.75
2018-01-22T12:29:02.799Z,93.90
2018-01-22T12:31:33.572Z,94.25
2018-01-22T12:34:04.351Z,95.08
2018-01-22T12:36:35.131Z,95.16
2018-01-22T12:39:05.927Z,94.91
2018-01-22T12:41:36.712Z,95.15
2018-01-22T12:44:07.512Z,95.41
2018-01-22T12:46:38.283Z,94.76
2018-01-22T12:49:09.050Z,93.77
2018-01-22T12:51:39.916Z,93.62
2018-01-22T12:54:10.737Z,92.97
2018-01-22T12:56:41.504Z,93.92
2018-01-22T12:59:12.278Z,93.69
2018-01-22T13:01:43.125Z,94.16
2018-01-22T13:04:14.020Z,94.16
2018-01-22T13:06:44.801Z,94.45
2018-01-22T13:09:15.558Z,94.91
2018-01-22T13:11:46.344Z,95.09
2018-01-22T13:14:17.111Z,94.64
2018-01-22T13:16:47.850Z,94.13
2018-01-22T13:19:18.677Z,93.70
2018-01-22T13:21:49.523Z,94.06
2018-01-22T13:24:20.268Z,94.31
2018-01-22T13:26:51.061Z,94.69
2018-01-22T13:29:21.829Z,94.83
2018-01-22T13:31:52.591Z,94.62
2018-01-22T13:34:23.368Z,94.88
2018-01-22T13:36:54.116Z,94.71
2018-01-22T13:39:31.801Z,94.65
2018-01-22T13:45:00.531Z,94.29
2018-01-22T13:47:31.293Z,94.74
2018-01-22T13:50:02.084Z,94.99
2018-01-22T13:52:32.828Z,94.34
2018-01-22T13:55:03.604Z,93.95
2018-01-22T13:57:34.387Z,94.62
2018-01-22T14:00:05.180Z,94.82
2018-01-22T14:02:35.936Z,94.93
2018-01-22T14:05:06.680Z,95.03
2018-01-22T14:07:37.427Z,95.22
2018-01-22T14:10:09.105Z,95.17
2018-01-22T14:12:39.908Z,95.10
2018-01-22T14:15:10.720Z,95.42
2018-01-22T14:17:41.545Z,95.48
2018-01-22T14:20:12.332Z,95.79
2018-01-22T14:22:43.147Z,95.90
2018-01-22T14:25:13.943Z,96.13
2018-01-22T14:27:44.684Z,96.04
2018-01-22T14:30:15.467Z,96.02
2018-01-22T14:32:46.248Z,96.02
2018-01-22T14:35:17.614Z,95.72
2018-01-22T14:37:48.373Z,95.75
2018-01-22T14:40:19.132Z,96.02
2018-01-22T14:42:49.888Z,96.55
2018-01-22T14:45:20.673Z,96.59
2018-01-22T14:47:51.412Z,96.70
2018-01-22T14:50:22.177Z,96.51
2018-01-22T14:52:52.923Z,96.65
2018-01-22T14:55:23.711Z,96.67
2018-01-22T14:57:54.455Z,96.79
2018-01-22T15:00:25.216Z,96.90
2018-01-22T15:02:55.961Z,96.90
2018-01-22T15:05:26.715Z,97.02
2018-01-22T15:07:57.463Z,97.16
2018-01-22T15:10:28.219Z,96.93
2018-01-22T15:12:58.999Z,97.15
2018-01-22T15:15:29.769Z,96.95
2018-01-22T15:18:00.533Z,97.04
2018-01-22T15:20:31.319Z,96.98
2018-01-22T15:23:02.113Z,96.88
2018-01-22T15:25:32.887Z,97.07
2018-01-22T15:28:03.643Z,97.07
2018-01-22T15:30:34.420Z,97.37
2018-01-22T15:33:05.203Z,97.43
2018-01-22T15:35:35.963Z,97.53
2018-01-22T15:38:06.709Z,97.32
2018-01-22T15:40:37.495Z,97.19
2018-01-22T15:43:08.248Z,97.40
2018-01-22T15:45:39.047Z,97.42
2018-01-22T15:48:09.826Z,97.61
2018-01-22T15:50:40.621Z,97.78
2018-01-22T15:53:11.368Z,97.70
2018-01-22T15:55:42.145Z,97.87
2018-01-22T15:58:12.900Z,97.83
2018-01-22T16:00:43.736Z,97.85
2018-01-22T16:03:14.509Z,97.89
2018-01-22T16:05:45.288Z,97.81
2018-01-22T16:08:16.043Z,97.71
2018-01-22T16:10:46.812Z,97.89
2018-01-22T16:13:17.593Z,97.77
2018-01-22T16:15:48.362Z,97.87
2018-01-22T16:18:19.101Z,97.80
2018-01-22T16:20:49.842Z,97.73
2018-01-22T16:23:20.576Z,97.86
2018-01-22T16:25:51.332Z,97.88
2018-01-22T16:28:22.080Z,97.80
2018-01-22T16:30:52.828Z,97.75
2018-01-22T16:33:23.569Z,97.85
2018-01-22T16:35:54.327Z,97.73
2018-01-22T16:38:25.055Z,97.69
2018-01-22T16:40:55.822Z,97.67
2018-01-22T16:43:26.556Z,97.76
2018-01-22T16:45:57.288Z,97.79
2018-01-22T16:48:28.023Z,97.79
2018-01-22T16:50:58.796Z,97.69
2018-01-22T16:53:29.547Z,97.80
2018-01-22T16:56:00.296Z,97.92
2018-01-22T16:58:31.031Z,97.85
2018-01-22T17:01:01.833Z,97.65
2018-01-22T17:03:32.624Z,97.59
2018-01-22T17:06:03.381Z,97.76
2018-01-22T17:08:34.149Z,97.62
2018-01-22T17:11:04.905Z,97.51
2018-01-22T17:13:35.644Z,97.67
2018-01-22T17:16:06.408Z,97.74
2018-01-22T17:18:37.163Z,97.86
2018-01-22T17:21:07.920Z,97.83
2018-01-22T17:23:38.696Z,97.70
2018-01-22T17:26:09.439Z,97.87
2018-01-22T17:28:40.199Z,97.68
2018-01-22T17:31:11.004Z,97.62
2018-01-22T17:33:41.807Z,97.58
2018-01-22T17:36:12.583Z,97.52
2018-01-22T17:38:43.320Z,97.49
2018-01-22T17:41:14.068Z,97.29
2018-01-22T17:43:44.806Z,97.32
2018-01-22T17:46:15.556Z,97.41
2018-01-22T17:48:46.305Z,97.48
2018-01-22T17:51:17.083Z,97.37
2018-01-22T17:53:47.812Z,97.47
2018-01-22T17:56:18.622Z,97.46
2018-01-22T17:58:49.440Z,97.28
2018-01-22T18:01:20.241Z,97.22
2018-01-22T18:03:51.022Z,97.54
2018-01-22T18:06:21.792Z,97.57
2018-01-22T18:08:52.536Z,97.64
2018-01-22T18:11:23.275Z,97.59
2018-01-22T18:13:54.008Z,97.65
2018-01-22T18:16:24.753Z,97.59
2018-01-22T18:18:55.504Z,97.70
2018-01-22T18:21:26.248Z,97.62
2018-01-22T18:23:57.047Z,97.62
2018-01-22T18:26:27.838Z,97.51
2018-01-22T18:28:58.602Z,97.36
2018-01-22T18:31:29.439Z,97.21
2018-01-22T18:34:00.205Z,97.27
2018-01-22T18:36:31.005Z,97.54
2018-01-22T18:39:03.916Z,97.74
2018-01-22T18:41:34.704Z,97.82
2018-01-22T18:44:05.456Z,97.73
2018-01-22T18:46:36.225Z,97.90
2018-01-22T18:49:06.969Z,97.75
2018-01-22T18:51:37.727Z,97.54
2018-01-22T18:54:08.469Z,97.50
2018-01-22T18:56:39.309Z,97.73
2018-01-22T18:59:10.064Z,97.86
2018-01-22T19:01:40.853Z,98.08
2018-01-22T19:04:12.234Z,98.11
2018-01-22T19:06:43.056Z,97.94
2018-01-22T19:09:13.871Z,98.00
2018-01-22T19:11:44.695Z,97.94
2018-01-22T19:14:15.453Z,97.88
2018-01-22T19:16:46.212Z,97.96
2018-01-22T19:19:17.020Z,97.88
2018-01-22T19:21:47.782Z,97.74
2018-01-22T19:24:18.528Z,97.87
2018-01-22T19:26:49.296Z,97.69
2018-01-22T19:29:20.108Z,97.62
2018-01-22T19:31:50.906Z,97.71
2018-01-22T19:34:21.651Z,97.75
2018-01-22T19:36:52.484Z,97.53
2018-01-22T19:39:23.229Z,97.72
2018-01-22T19:41:54.044Z,97.89
2018-01-22T19:44:24.832Z,97.92
2018-01-22T19:46:55.600Z,97.99
2018-01-22T19:49:26.348Z,97.92
2018-01-22T19:51:57.111Z,98.09
2018-01-22T19:54:28.657Z,98.21
2018-01-22T19:56:59.416Z,98.04
2018-01-22T19:59:30.152Z,98.11
2018-01-22T20:02:01.011Z,98.23
2018-01-22T20:04:31.780Z,98.37
2018-01-22T20:07:02.602Z,98.36
2018-01-22T20:09:33.431Z,98.49
2018-01-22T20:12:04.283Z,98.57
2018-01-22T20:14:35.084Z,98.43
2018-01-22T20:17:05.910Z,98.36
2018-01-22T20:19:36.697Z,98.45
2018-01-22T20:22:07.523Z,98.62
2018-01-22T20:24:38.317Z,98.62
2018-01-22T20:27:09.132Z,98.66
2018-01-22T20:29:39.939Z,98.63
2018-01-22T20:32:10.737Z,98.59
2018-01-22T20:34:41.589Z,98.53
2018-01-22T20:37:12.387Z,98.46
2018-01-22T20:39:43.171Z,98.52
2018-01-22T20:42:13.954Z,98.41
2018-01-22T20:44:44.705Z,98.62
2018-01-22T20:47:15.470Z,98.57
2018-01-22T20:49:46.283Z,98.57
2018-01-22T20:52:17.138Z,98.51
2018-01-22T21:08:10.034Z,98.27
2018-01-22T21:10:40.840Z,98.32
2018-01-22T21:13:11.626Z,98.34
2018-01-22T21:15:42.455Z,98.38
2018-01-22T21:18:13.196Z,98.25
2018-01-22T21:20:43.931Z,98.27
2018-01-22T21:23:14.692Z,98.32
2018-01-22T21:25:45.462Z,98.37
2018-01-22T21:28:16.252Z,98.48
2018-01-22T21:30:47.062Z,98.49
2018-01-22T21:33:17.870Z,98.44
2018-01-22T21:35:48.672Z,98.49
2018-01-22T21:38:19.451Z,98.08
2018-01-22T21:40:50.261Z,98.32
2018-01-22T21:43:21.070Z,98.27
2018-01-22T21:45:51.981Z,98.34
2018-01-22T21:48:22.742Z,98.33
2018-01-22T21:50:53.493Z,98.47
2018-01-22T21:53:24.294Z,98.46
2018-01-22T21:55:55.116Z,98.43
2018-01-22T21:58:25.905Z,98.54
2018-01-22T22:00:56.720Z,98.59
2018-01-22T22:03:27.541Z,98.44
2018-01-22T22:05:58.289Z,98.41
2018-01-22T22:08:29.033Z,98.49
2018-01-22T22:10:59.785Z,98.52
2018-01-22T22:13:30.516Z,98.47
2018-01-22T22:16:01.332Z,98.56
2018-01-22T22:18:32.183Z,98.49
2018-01-22T22:21:02.965Z,98.37
2018-01-22T22:23:33.753Z,98.43
2018-01-22T22:26:04.578Z,98.53
2018-01-22T22:28:35.332Z,98.61
2018-01-22T22:31:06.102Z,98.60
2018-01-22T22:33:36.910Z,98.46
2018-01-22T22:36:07.695Z,98.46
2018-01-22T22:38:38.475Z,98.50
2018-01-22T22:41:09.282Z,98.58
2018-01-22T22:43:40.052Z,98.58
2018-01-22T22:46:10.812Z,98.54
2018-01-22T22:48:41.628Z,98.63
2018-01-22T22:51:12.412Z,98.80
2018-01-22T22:53:43.202Z,98.70
2018-01-22T22:56:13.968Z,98.56
2018-01-22T22:58:44.740Z,98.20
2018-01-22T23:01:16.272Z,98.21
2018-01-22T23:03:47.024Z,98.30
2018-01-22T23:06:17.788Z,98.43
2018-01-22T23:08:48.530Z,98.50
2018-01-22T23:11:19.288Z,98.54
2018-01-22T23:13:50.024Z,98.59
2018-01-22T23:16:20.813Z,98.72
2018-01-22T23:18:51.578Z,98.76
2018-01-22T23:21:22.331Z,98.77
2018-01-22T23:23:54.078Z,98.90
2018-01-22T23:26:24.832Z,98.93
2018-01-22T23:28:55.574Z,98.94
2018-01-22T23:31:26.355Z,98.84
2018-01-22T23:33:57.108Z,98.60
2018-01-22T23:36:27.870Z,98.36
2018-01-22T23:38:58.612Z,98.30
2018-01-22T23:41:29.366Z,98.08
2018-01-22T23:44:00.108Z,97.72
2018-01-22T23:46:30.879Z,97.54
2018-01-22T23:49:01.630Z,97.27
2018-01-22T23:51:32.400Z,97.24
2018-01-22T23:54:03.144Z,97.33
2018-01-22T23:56:33.900Z,97.63
2018-01-22T23:59:04.635Z,97.85
